Time;durP1;ratioP1;P1;durP2;ratioP2;P2;SDS_P1;SDS_P2;PMS_P1;PMS_P2;Temp;Humidity;BMP_temperature;BMP_pressure;BME280_temperature;BME280_humidity;BME280_pressure;Samples;Min_cycle;Max_cycle;Signal;HPM_P1;HPM_P2
2022/04/25 00:01:13;;;;;;;16.25;11.00;;;8.30;99.90;;;;;;5031104;28;20053;-83
2022/04/25 00:03:39;;;;;;;18.15;11.18;;;8.40;99.90;;;;;;4985659;28;20054;-83
2022/04/25 00:06:05;;;;;;;17.50;11.40;;;8.40;99.90;;;;;;4978902;28;20041;-83
2022/04/25 00:08:31;;;;;;;18.02;11.15;;;8.50;99.90;;;;;;4991228;28;20053;-84
2022/04/25 00:10:57;;;;;;;18.05;11.35;;;8.40;99.90;;;;;;5013892;28;20046;-82
2022/04/25 00:13:23;;;;;;;18.20;11.23;;;8.40;99.90;;;;;;5014406;28;20124;-83
2022/04/25 00:15:49;;;;;;;21.08;11.93;;;8.40;99.90;;;;;;4997969;28;20649;-83
2022/04/25 00:18:15;;;;;;;19.50;12.65;;;8.50;99.90;;;;;;4982307;28;20042;-83
2022/04/25 00:20:41;;;;;;;23.90;12.32;;;8.40;99.90;;;;;;4964172;28;20060;-83
2022/04/25 00:23:06;;;;;;;19.35;12.18;;;8.40;99.90;;;;;;5010733;28;20132;-82
2022/04/25 00:25:33;;;;;;;19.80;11.82;;;8.40;99.90;;;;;;4997322;28;20171;-84
2022/04/25 00:28:00;;;;;;;17.65;12.43;;;8.40;99.90;;;;;;5007949;28;20042;-83
2022/04/25 00:30:28;;;;;;;21.85;12.73;;;8.40;99.90;;;;;;4990110;28;20057;-83
2022/04/25 00:32:55;;;;;;;23.08;14.20;;;8.30;99.90;;;;;;5011337;28;20041;-83
2022/04/25 00:35:21;;;;;;;23.73;12.98;;;8.20;99.90;;;;;;4976093;28;20065;-86
2022/04/25 00:37:46;;;;;;;21.95;13.35;;;8.10;99.90;;;;;;4983542;28;20041;-87
2022/04/25 00:40:12;;;;;;;22.40;13.93;;;8.00;99.90;;;;;;4977329;28;20058;-85
2022/04/25 00:42:39;;;;;;;28.27;14.85;;;8.00;99.90;;;;;;4978859;28;20060;-85
2022/04/25 00:45:05;;;;;;;27.70;15.23;;;7.80;99.90;;;;;;4985227;28;20136;-85
2022/04/25 00:47:32;;;;;;;20.48;14.60;;;7.80;99.90;;;;;;4993301;28;20422;-84
2022/04/25 00:49:57;;;;;;;26.38;14.90;;;7.70;99.90;;;;;;4966706;28;20139;-85
2022/04/25 00:52:23;;;;;;;28.75;16.55;;;7.70;99.90;;;;;;4988840;28;20085;-85
2022/04/25 00:54:49;;;;;;;23.20;15.63;;;7.70;99.90;;;;;;4990860;28;20049;-85
2022/04/25 00:57:16;;;;;;;23.02;14.35;;;7.60;99.90;;;;;;5027061;28;20062;-85
2022/04/25 00:59:44;;;;;;;28.13;16.35;;;7.60;99.90;;;;;;4993375;28;20450;-85
2022/04/25 01:02:10;;;;;;;25.02;15.80;;;7.60;99.90;;;;;;4986890;28;20523;-85
2022/04/25 01:04:36;;;;;;;23.65;15.80;;;7.50;99.90;;;;;;5009025;28;20121;-84
2022/04/25 01:07:02;;;;;;;26.58;16.10;;;7.40;99.90;;;;;;4994260;28;20135;-85
2022/04/25 01:09:28;;;;;;;29.13;16.77;;;7.40;99.90;;;;;;5013425;28;20097;-84
2022/04/25 01:11:54;;;;;;;27.02;16.30;;;7.40;99.90;;;;;;4993416;28;20058;-85
2022/04/25 01:14:20;;;;;;;25.13;15.65;;;7.30;99.90;;;;;;4993169;28;20140;-85
2022/04/25 01:16:47;;;;;;;22.85;15.65;;;7.30;99.90;;;;;;4993288;28;20054;-85
2022/04/25 01:19:14;;;;;;;28.20;15.80;;;7.20;99.90;;;;;;4991629;28;20049;-85
2022/04/25 01:22:19;;;;;;;27.60;16.48;;;7.20;99.90;;;;;;4976670;28;20056;-86
2022/04/25 01:27:30;;;;;;;23.63;15.75;;;7.10;99.90;;;;;;4918008;29;20051;-85
2022/04/25 01:29:56;;;;;;;27.20;17.02;;;7.00;99.90;;;;;;4934423;28;20065;-86
2022/04/25 01:32:23;;;;;;;25.38;16.48;;;6.90;99.90;;;;;;5007716;28;20124;-85
2022/04/25 01:34:49;;;;;;;26.67;16.52;;;7.00;99.90;;;;;;5008723;28;20065;-84
2022/04/25 01:37:18;;;;;;;31.67;17.42;;;7.00;99.90;;;;;;4978146;28;20065;-85
2022/04/25 01:39:49;;;;;;;25.90;17.90;;;6.90;99.90;;;;;;4992515;28;20084;-84
2022/04/25 01:42:16;;;;;;;27.45;17.05;;;6.80;99.90;;;;;;4991109;28;20045;-85
2022/04/25 01:44:42;;;;;;;27.98;16.70;;;6.80;99.90;;;;;;4992042;28;20103;-84
2022/04/25 01:47:08;;;;;;;28.80;17.95;;;6.70;99.90;;;;;;4981757;28;20465;-84
2022/04/25 01:49:35;;;;;;;30.63;17.70;;;6.70;99.90;;;;;;4993277;28;20038;-85
2022/04/25 01:52:06;;;;;;;28.17;17.60;;;6.60;99.90;;;;;;4974952;28;20155;-84
2022/04/25 01:54:32;;;;;;;25.20;16.73;;;6.60;99.90;;;;;;5006694;28;20046;-85
2022/04/25 01:57:00;;;;;;;30.65;17.38;;;6.50;99.90;;;;;;4990609;28;20057;-84
2022/04/25 01:59:27;;;;;;;27.35;17.23;;;6.50;99.90;;;;;;4958244;28;20078;-85
2022/04/25 02:01:53;;;;;;;26.48;16.80;;;6.50;99.90;;;;;;4983714;28;20042;-84
2022/04/25 02:04:19;;;;;;;26.67;17.30;;;6.40;99.90;;;;;;4985325;28;20129;-84
2022/04/25 02:06:45;;;;;;;28.17;17.45;;;6.40;99.90;;;;;;4992207;28;20159;-84
2022/04/25 02:09:11;;;;;;;29.95;17.58;;;6.50;99.90;;;;;;5007438;28;20114;-84
2022/04/25 02:11:37;;;;;;;26.10;14.98;;;6.60;99.90;;;;;;4991984;28;20636;-84
2022/04/25 02:14:02;;;;;;;29.30;16.13;;;6.60;99.90;;;;;;4992167;28;20202;-84
2022/04/25 02:16:28;;;;;;;32.80;15.68;;;6.70;99.90;;;;;;4992529;28;20392;-84
2022/04/25 02:18:55;;;;;;;24.30;14.60;;;6.70;99.90;;;;;;5007122;28;20042;-84
2022/04/25 02:21:21;;;;;;;26.20;15.00;;;6.80;99.90;;;;;;5015272;28;20050;-84
2022/04/25 02:23:47;;;;;;;23.02;15.27;;;6.70;99.90;;;;;;4988942;28;20071;-84
2022/04/25 02:26:13;;;;;;;28.63;14.70;;;6.80;99.90;;;;;;4973093;28;20499;-84
2022/04/25 02:28:39;;;;;;;23.73;14.82;;;6.80;99.90;;;;;;4989247;28;20054;-84
2022/04/25 02:31:07;;;;;;;25.50;15.00;;;6.80;99.90;;;;;;5004066;28;20053;-84
2022/04/25 02:33:34;;;;;;;25.10;15.27;;;6.80;99.90;;;;;;4959627;28;20501;-83
2022/04/25 02:36:04;;;;;;;22.85;14.23;;;7.00;99.90;;;;;;4991406;28;20100;-84
2022/04/25 02:38:35;;;;;;;25.73;14.48;;;6.90;99.90;;;;;;5002585;28;20109;-83
2022/04/25 02:41:06;;;;;;;24.33;14.63;;;6.90;99.90;;;;;;5008135;28;20827;-83
2022/04/25 02:43:40;;;;;;;23.33;15.18;;;7.00;99.90;;;;;;5005286;28;20042;-84
2022/04/25 02:46:07;;;;;;;21.75;14.10;;;7.00;99.90;;;;;;4972452;28;20104;-84
2022/04/25 02:48:35;;;;;;;22.70;12.27;;;7.10;99.90;;;;;;4957114;28;20429;-84
2022/04/25 02:51:02;;;;;;;21.52;13.38;;;7.00;99.90;;;;;;4979102;28;20062;-84
2022/04/25 02:53:28;;;;;;;26.02;13.40;;;7.00;99.90;;;;;;4989185;28;20049;-83
2022/04/25 02:55:54;;;;;;;20.98;12.50;;;7.10;99.90;;;;;;4996180;28;20087;-84
2022/04/25 02:58:21;;;;;;;19.38;12.77;;;7.00;99.90;;;;;;5024890;28;20042;-84
2022/04/25 03:00:47;;;;;;;23.23;12.43;;;7.10;99.90;;;;;;4972188;28;20053;-84
2022/04/25 03:03:14;;;;;;;20.20;12.07;;;7.00;99.90;;;;;;4973180;28;20050;-84
2022/04/25 03:05:45;;;;;;;22.35;12.30;;;7.10;99.90;;;;;;4956861;28;20050;-84
2022/04/25 03:08:12;;;;;;;22.98;13.13;;;7.00;99.90;;;;;;5005149;28;20085;-84
2022/04/25 03:10:39;;;;;;;26.95;14.90;;;7.10;99.90;;;;;;5007896;28;20056;-83
2022/04/25 03:13:08;;;;;;;20.85;13.65;;;7.00;99.90;;;;;;5024325;28;20381;-84
2022/04/25 03:15:37;;;;;;;21.08;13.38;;;7.00;99.90;;;;;;4976499;28;20054;-84
2022/04/25 03:18:03;;;;;;;22.80;13.48;;;7.00;99.90;;;;;;4990014;28;20048;-84
2022/04/25 03:20:28;;;;;;;20.38;13.23;;;7.00;99.90;;;;;;4991808;28;20128;-84
2022/04/25 03:22:55;;;;;;;23.40;13.60;;;7.00;99.90;;;;;;4991223;28;20042;-83
2022/04/25 03:25:21;;;;;;;21.05;13.23;;;7.00;99.90;;;;;;4975523;28;20119;-83
2022/04/25 03:27:47;;;;;;;22.05;12.15;;;7.00;99.90;;;;;;5003134;28;20049;-84
2022/04/25 03:30:12;;;;;;;17.83;12.48;;;7.00;99.90;;;;;;4976081;28;20045;-83
2022/04/25 03:32:46;;;;;;;24.17;13.02;;;7.00;99.90;;;;;;4976504;28;20056;-83
2022/04/25 03:35:17;;;;;;;22.17;12.88;;;7.00;99.90;;;;;;4995124;28;20086;-84
2022/04/25 03:37:44;;;;;;;23.13;12.82;;;6.90;99.90;;;;;;4992445;28;20050;-84
2022/04/25 03:40:10;;;;;;;25.45;14.00;;;7.00;99.90;;;;;;4991128;28;20794;-83
2022/04/25 03:42:41;;;;;;;22.50;12.20;;;6.90;99.90;;;;;;4985720;28;20049;-83
2022/04/25 03:45:09;;;;;;;21.52;13.32;;;6.90;99.90;;;;;;5027691;28;20045;-83
2022/04/25 03:47:39;;;;;;;23.25;14.43;;;6.90;99.90;;;;;;5028396;28;20050;-84
2022/04/25 03:50:07;;;;;;;29.30;15.38;;;7.00;99.90;;;;;;4971561;28;20056;-84
2022/04/25 03:52:37;;;;;;;27.88;14.20;;;6.90;99.90;;;;;;4993962;28;20052;-83
2022/04/25 03:57:52;;;;;;;21.73;13.52;;;6.90;99.90;;;;;;5011023;28;20057;-83
2022/04/25 04:00:18;;;;;;;21.17;14.02;;;6.90;99.90;;;;;;4987394;28;20395;-83
2022/04/25 04:02:44;;;;;;;22.00;13.57;;;6.90;99.90;;;;;;4970296;28;20056;-84
2022/04/25 04:05:10;;;;;;;27.58;14.32;;;6.90;99.90;;;;;;4978492;28;20054;-83
2022/04/25 04:07:36;;;;;;;23.38;14.02;;;6.90;99.90;;;;;;4993403;28;20050;-84
2022/04/25 04:10:01;;;;;;;21.90;13.60;;;7.00;99.90;;;;;;4990281;28;20100;-84
2022/04/25 04:12:31;;;;;;;21.40;12.95;;;7.00;99.90;;;;;;4994030;28;20056;-83
2022/04/25 04:14:58;;;;;;;20.42;13.30;;;7.00;99.90;;;;;;5026995;28;20054;-84
2022/04/25 04:17:24;;;;;;;23.52;13.63;;;7.00;99.90;;;;;;5010706;28;20100;-84
2022/04/25 04:19:53;;;;;;;25.17;12.63;;;6.90;99.90;;;;;;4993455;28;20068;-83
2022/04/25 04:22:21;;;;;;;20.83;12.23;;;6.90;99.90;;;;;;4990567;28;20403;-84
2022/04/25 04:24:47;;;;;;;22.52;13.48;;;6.90;99.90;;;;;;5027569;28;20046;-84
2022/04/25 04:27:16;;;;;;;20.58;12.93;;;6.90;99.90;;;;;;4977954;28;20372;-83
2022/04/25 04:29:42;;;;;;;22.77;12.40;;;7.00;99.90;;;;;;4979095;28;20082;-84
2022/04/25 04:32:08;;;;;;;20.75;12.77;;;7.00;99.90;;;;;;4975739;28;20396;-84
2022/04/25 04:34:36;;;;;;;23.65;12.90;;;6.90;99.90;;;;;;4984162;28;20062;-84
2022/04/25 04:37:03;;;;;;;19.20;12.73;;;7.00;99.90;;;;;;4974730;28;20074;-84
2022/04/25 04:39:29;;;;;;;20.42;13.07;;;7.00;99.90;;;;;;4975529;28;20042;-83
2022/04/25 04:41:55;;;;;;;15.60;11.15;;;7.00;99.90;;;;;;4965148;28;20053;-84
2022/04/25 04:44:21;;;;;;;18.00;12.00;;;7.00;99.90;;;;;;4975167;28;20057;-84
2022/04/25 04:46:47;;;;;;;20.63;11.95;;;7.00;99.90;;;;;;4986997;28;20049;-84
2022/04/25 04:49:13;;;;;;;23.33;12.07;;;7.00;99.90;;;;;;4990772;28;20050;-83
2022/04/25 04:51:39;;;;;;;19.25;11.25;;;7.10;99.90;;;;;;4977398;28;20053;-83
2022/04/25 04:54:04;;;;;;;16.58;11.55;;;7.00;99.90;;;;;;4987028;28;20487;-83
2022/04/25 04:56:30;;;;;;;18.25;10.63;;;7.10;99.90;;;;;;4991458;28;20128;-84
2022/04/25 04:58:56;;;;;;;18.00;11.43;;;7.00;99.90;;;;;;4979605;28;20057;-84
2022/04/25 05:01:22;;;;;;;16.58;9.43;;;7.10;99.90;;;;;;4985331;28;20046;-84
2022/04/25 05:03:48;;;;;;;17.17;10.07;;;7.10;99.90;;;;;;4981448;28;20046;-84
2022/04/25 05:06:14;;;;;;;15.68;10.52;;;7.10;99.90;;;;;;4979201;28;20042;-84
2022/04/25 05:08:40;;;;;;;20.25;10.75;;;7.10;99.90;;;;;;5001899;28;20057;-82
2022/04/25 05:11:08;;;;;;;17.60;9.68;;;7.10;99.90;;;;;;4982954;28;20054;-84
2022/04/25 05:13:34;;;;;;;18.90;10.63;;;7.10;99.90;;;;;;4998345;28;20458;-83
2022/04/25 05:16:00;;;;;;;56.33;33.40;;;7.20;99.90;;;;;;5013589;28;20106;-82
2022/04/25 05:18:25;;;;;;;16.55;10.68;;;7.10;99.90;;;;;;4981576;28;20602;-84
2022/04/25 05:20:51;;;;;;;19.60;11.68;;;7.10;99.90;;;;;;4996042;28;20057;-84
2022/04/25 05:23:17;;;;;;;15.48;10.70;;;7.10;99.90;;;;;;4978404;28;20057;-83
2022/04/25 05:25:43;;;;;;;16.38;10.38;;;7.20;99.90;;;;;;4976695;28;20081;-84
2022/04/25 05:28:08;;;;;;;15.82;10.57;;;7.20;99.90;;;;;;4978619;28;20048;-84
2022/04/25 05:30:37;;;;;;;18.67;10.63;;;7.10;99.90;;;;;;4992395;28;20042;-84
2022/04/25 05:33:03;;;;;;;16.27;10.52;;;7.10;99.90;;;;;;4992714;28;20077;-84
2022/04/25 05:35:33;;;;;;;18.50;10.77;;;7.10;99.90;;;;;;4992906;28;20506;-84
2022/04/25 05:38:00;;;;;;;18.27;11.10;;;7.10;99.90;;;;;;5010168;28;20052;-84
2022/04/25 05:40:27;;;;;;;18.10;11.27;;;7.10;99.90;;;;;;4985574;28;20046;-84
2022/04/25 05:42:55;;;;;;;20.75;10.82;;;7.10;99.90;;;;;;5009598;28;20057;-84
2022/04/25 05:45:23;;;;;;;19.13;10.68;;;7.20;99.90;;;;;;4985709;28;20054;-85
2022/04/25 05:47:50;;;;;;;16.48;10.95;;;7.20;99.90;;;;;;4974511;28;20222;-86
2022/04/25 05:53:04;;;;;;;17.40;10.98;;;7.20;99.90;;;;;;5001743;28;20112;-84
2022/04/25 05:55:30;;;;;;;19.33;12.20;;;7.20;99.90;;;;;;4997696;28;20525;-82
2022/04/25 05:57:57;;;;;;;16.92;11.30;;;7.20;99.90;;;;;;4988811;28;20073;-84
2022/04/25 06:00:22;;;;;;;17.95;11.48;;;7.20;99.90;;;;;;4986448;28;20038;-82
2022/04/25 06:02:48;;;;;;;18.48;11.23;;;7.30;99.90;;;;;;4983086;28;20476;-82
2022/04/25 06:05:15;;;;;;;17.42;11.20;;;7.40;99.90;;;;;;4970593;28;20104;-83
2022/04/25 06:07:45;;;;;;;17.95;12.13;;;7.50;99.90;;;;;;4993117;28;20081;-83
2022/04/25 06:10:13;;;;;;;20.55;11.70;;;7.60;99.90;;;;;;4980120;28;20511;-83
2022/04/25 06:12:50;;;;;;;17.70;10.95;;;7.70;99.90;;;;;;4983041;28;20062;-82
2022/04/25 06:15:21;;;;;;;18.75;10.88;;;7.80;99.90;;;;;;4984656;28;20054;-82
2022/04/25 06:17:47;;;;;;;16.20;10.75;;;7.90;99.90;;;;;;4971423;28;20078;-83
2022/04/25 06:20:13;;;;;;;21.08;10.82;;;7.90;99.90;;;;;;4989519;28;20045;-83
2022/04/25 06:22:39;;;;;;;15.77;9.43;;;8.00;99.90;;;;;;5006077;28;20050;-83
2022/04/25 06:25:06;;;;;;;19.63;11.25;;;8.00;99.90;;;;;;4997189;28;20056;-82
2022/04/25 06:27:32;;;;;;;16.88;10.60;;;8.00;99.90;;;;;;4986569;28;20057;-83
2022/04/25 06:29:58;;;;;;;16.70;10.30;;;8.00;99.90;;;;;;4992645;28;20057;-82
2022/04/25 06:32:25;;;;;;;16.23;9.70;;;8.00;99.90;;;;;;4990273;28;20431;-82
2022/04/25 06:34:51;;;;;;;12.82;10.20;;;7.90;99.90;;;;;;4975453;28;20057;-83
2022/04/25 06:37:17;;;;;;;15.20;9.13;;;7.90;99.90;;;;;;4964363;28;20045;-82
2022/04/25 06:39:42;;;;;;;14.15;9.60;;;7.90;99.90;;;;;;4971968;28;20046;-83
2022/04/25 06:42:12;;;;;;;16.10;10.00;;;7.90;99.90;;;;;;4976342;28;20077;-83
2022/04/25 06:44:38;;;;;;;19.20;9.48;;;8.00;99.90;;;;;;4991582;28;20125;-83
2022/04/25 06:47:04;;;;;;;17.42;10.00;;;7.90;99.90;;;;;;5000486;28;20137;-83
2022/04/25 06:49:30;;;;;;;16.10;9.68;;;8.00;99.90;;;;;;4973878;28;20053;-83
2022/04/25 06:51:58;;;;;;;16.15;9.65;;;8.10;99.90;;;;;;4988404;28;20060;-83
2022/04/25 06:54:26;;;;;;;11.90;8.85;;;8.10;99.90;;;;;;4985087;28;20049;-82
2022/04/25 06:56:56;;;;;;;12.85;9.15;;;8.20;99.90;;;;;;4995978;28;20054;-82
2022/04/25 06:59:22;;;;;;;13.10;8.63;;;8.20;99.90;;;;;;4982203;28;20228;-84
2022/04/25 07:01:49;;;;;;;15.23;9.00;;;8.20;99.90;;;;;;4974914;28;20145;-82
2022/04/25 07:04:16;;;;;;;13.77;9.40;;;8.20;99.90;;;;;;4985956;28;20125;-82
2022/04/25 07:06:43;;;;;;;15.73;9.20;;;8.30;99.90;;;;;;5007495;28;20061;-82
2022/04/25 07:09:13;;;;;;;12.88;8.95;;;8.30;99.90;;;;;;4968202;28;20054;-82
2022/04/25 07:11:48;;;;;;;14.38;8.82;;;8.20;99.90;;;;;;4988619;28;20585;-82
2022/04/25 07:14:15;;;;;;;14.98;8.63;;;8.20;99.90;;;;;;5007157;28;20092;-82
2022/04/25 07:16:44;;;;;;;13.35;9.20;;;8.10;99.90;;;;;;4962477;28;20105;-82
2022/04/25 07:19:10;;;;;;;14.07;8.30;;;8.10;99.90;;;;;;5015298;28;20042;-82
2022/04/25 07:29:49;;;;;;;16.88;9.40;;;7.90;99.90;;;;;;4991692;28;20068;-83
2022/04/25 07:32:15;;;;;;;17.35;9.68;;;7.80;99.90;;;;;;4981145;28;20041;-83
2022/04/25 07:34:43;;;;;;;15.30;9.80;;;7.80;99.90;;;;;;4993782;28;20157;-83
2022/04/25 07:37:10;;;;;;;20.17;10.73;;;7.70;99.90;;;;;;5014526;28;20061;-83
2022/04/25 07:39:35;;;;;;;14.77;10.18;;;7.80;99.90;;;;;;5004606;28;20045;-83
2022/04/25 07:42:01;;;;;;;17.60;10.20;;;7.80;99.90;;;;;;5003982;28;20041;-84
2022/04/25 07:44:27;;;;;;;18.75;10.40;;;7.90;99.90;;;;;;4992812;28;20072;-85
2022/04/25 07:46:53;;;;;;;20.83;10.10;;;7.90;99.90;;;;;;4986454;28;20095;-84
2022/04/25 07:49:19;;;;;;;15.90;9.85;;;7.90;99.90;;;;;;5016374;28;20045;-83
2022/04/25 07:51:47;;;;;;;20.15;10.40;;;7.90;99.90;;;;;;5021458;28;20045;-83
2022/04/25 07:54:14;;;;;;;18.10;10.90;;;7.90;99.90;;;;;;5008224;28;20042;-83
2022/04/25 07:56:42;;;;;;;20.27;10.48;;;7.90;99.90;;;;;;4985710;28;20053;-82
2022/04/25 07:59:09;;;;;;;15.95;9.88;;;7.80;99.90;;;;;;5012884;28;20114;-83
2022/04/25 08:01:35;;;;;;;20.88;10.30;;;7.90;99.90;;;;;;4995186;28;20049;-83
2022/04/25 08:04:01;;;;;;;21.25;10.43;;;7.90;99.90;;;;;;5004813;28;20079;-83
2022/04/25 08:06:27;;;;;;;13.60;10.25;;;7.90;99.90;;;;;;5000204;28;20053;-83
2022/04/25 08:08:54;;;;;;;17.02;10.35;;;8.00;99.90;;;;;;4997032;28;20057;-83
2022/04/25 08:11:21;;;;;;;21.90;10.73;;;7.90;99.90;;;;;;4993103;28;20053;-82
2022/04/25 08:19:16;;;;;;;19.92;10.07;;;8.00;99.90;;;;;;5001802;28;20049;-82
2022/04/25 08:21:43;;;;;;;21.23;11.00;;;8.00;99.90;;;;;;4999156;28;20410;-81
2022/04/25 08:24:10;;;;;;;16.55;10.43;;;8.10;99.90;;;;;;4993169;28;20049;-81
2022/04/25 08:26:36;;;;;;;15.82;10.15;;;8.10;99.90;;;;;;5018030;28;20380;-81
2022/04/25 08:29:02;;;;;;;18.90;12.00;;;8.10;99.90;;;;;;4997754;28;20045;-81
2022/04/25 08:31:28;;;;;;;19.92;11.93;;;8.30;99.90;;;;;;5021362;28;20034;-81
2022/04/25 08:33:56;;;;;;;19.83;10.43;;;8.30;99.90;;;;;;4994065;28;20044;-81
2022/04/25 08:36:22;;;;;;;19.05;11.38;;;8.40;99.90;;;;;;5012540;28;20064;-81
2022/04/25 08:38:49;;;;;;;18.90;11.15;;;8.40;99.90;;;;;;4989884;28;20049;-81
2022/04/25 08:41:17;;;;;;;19.98;12.18;;;8.50;99.90;;;;;;4969767;28;20054;-81
2022/04/25 08:43:51;;;;;;;18.13;10.80;;;8.40;99.90;;;;;;4987459;28;20053;-81
2022/04/25 08:46:19;;;;;;;18.85;11.73;;;8.40;99.90;;;;;;4985731;28;20503;-81
2022/04/25 08:48:46;;;;;;;19.33;11.40;;;8.50;99.90;;;;;;5011024;28;20061;-81
2022/04/25 08:51:14;;;;;;;18.27;11.75;;;8.50;99.90;;;;;;4986768;28;20111;-82
2022/04/25 08:53:41;;;;;;;19.75;11.18;;;8.50;99.90;;;;;;5003533;28;20099;-83
2022/04/25 08:56:08;;;;;;;24.60;12.02;;;8.50;99.90;;;;;;4989696;28;20055;-81
2022/04/25 08:58:36;;;;;;;17.52;11.32;;;8.40;99.90;;;;;;4998379;28;20053;-81
2022/04/25 09:01:02;;;;;;;19.55;11.77;;;8.40;99.90;;;;;;4984658;28;20064;-80
2022/04/25 09:03:28;;;;;;;18.85;11.05;;;8.30;99.90;;;;;;4987633;28;20085;-82
2022/04/25 09:05:55;;;;;;;20.38;11.00;;;8.30;99.90;;;;;;5002540;28;20088;-83
2022/04/25 09:08:21;;;;;;;19.77;11.52;;;8.20;99.90;;;;;;5014385;28;20432;-83
2022/04/25 09:10:48;;;;;;;19.05;11.13;;;8.10;99.90;;;;;;4993505;28;20057;-83
2022/04/25 09:13:14;;;;;;;21.10;10.48;;;8.10;99.90;;;;;;4964796;28;20081;-83
2022/04/25 09:15:40;;;;;;;19.70;10.75;;;8.00;99.90;;;;;;4995654;28;20129;-82
2022/04/25 09:18:06;;;;;;;22.50;11.40;;;8.00;99.90;;;;;;5003036;28;20137;-83
2022/04/25 09:20:32;;;;;;;17.88;11.80;;;7.90;99.90;;;;;;4999771;28;20156;-83
2022/04/25 09:22:58;;;;;;;20.75;12.50;;;7.90;99.90;;;;;;4986299;28;20060;-82
2022/04/25 09:25:26;;;;;;;26.42;12.63;;;7.90;99.90;;;;;;4997099;28;20037;-83
2022/04/25 09:28:08;;;;;;;17.55;10.77;;;8.00;99.90;;;;;;5017346;28;20053;-83
2022/04/25 09:30:34;;;;;;;18.48;11.23;;;7.90;99.90;;;;;;4990108;28;20115;-83
2022/04/25 09:32:59;;;;;;;17.65;10.15;;;7.80;99.90;;;;;;4982211;28;20072;-83
2022/04/25 09:35:28;;;;;;;17.52;10.23;;;7.80;99.90;;;;;;4994069;28;20068;-84
2022/04/25 09:37:54;;;;;;;16.75;10.25;;;7.70;99.90;;;;;;4990186;28;20056;-83
2022/04/25 09:40:22;;;;;;;19.38;10.18;;;7.80;99.90;;;;;;5010806;28;20045;-83
2022/04/25 09:43:08;;;;;;;16.80;10.23;;;7.80;99.90;;;;;;4977801;28;20085;-83
2022/04/25 09:45:37;;;;;;;19.23;8.85;;;7.90;99.90;;;;;;4988010;28;20052;-84
2022/04/25 09:48:18;;;;;;;14.13;9.23;;;7.90;99.90;;;;;;5011462;28;20091;-83
2022/04/25 09:51:02;;;;;;;13.52;6.97;;;8.00;99.90;;;;;;5010309;28;20049;-83
2022/04/25 09:53:52;;;;;;;11.73;6.90;;;8.00;99.90;;;;;;5014742;28;20128;-83
2022/04/25 09:56:34;;;;;;;14.75;6.75;;;8.00;99.90;;;;;;4970372;28;20088;-83
2022/04/25 09:59:05;;;;;;;12.20;6.72;;;8.00;99.90;;;;;;4984869;28;20096;-83
2022/04/25 10:01:35;;;;;;;17.50;7.32;;;8.10;99.90;;;;;;5008072;28;20057;-83
2022/04/25 10:04:05;;;;;;;11.15;6.93;;;8.20;99.90;;;;;;4992266;28;20129;-83
2022/04/25 10:06:32;;;;;;;13.43;7.03;;;8.20;99.90;;;;;;4992623;28;20053;-83
2022/04/25 10:09:01;;;;;;;11.32;6.75;;;8.20;99.90;;;;;;5001188;28;20037;-83
2022/04/25 10:11:32;;;;;;;12.02;7.10;;;8.30;99.90;;;;;;5010926;28;20059;-83
2022/04/25 10:13:58;;;;;;;15.05;7.25;;;8.40;99.90;;;;;;4997067;28;20057;-83
2022/04/25 10:16:24;;;;;;;10.57;7.05;;;8.50;99.90;;;;;;4977622;28;20057;-83
2022/04/25 10:18:51;;;;;;;12.93;6.95;;;8.70;99.90;;;;;;4985914;28;20050;-83
2022/04/25 10:21:17;;;;;;;14.80;8.25;;;8.80;99.90;;;;;;5002955;28;20056;-82
2022/04/25 10:23:46;;;;;;;13.93;7.68;;;9.00;99.90;;;;;;4998319;28;20409;-82
2022/04/25 10:26:12;;;;;;;12.25;8.35;;;9.30;99.90;;;;;;5020064;28;20053;-83
2022/04/25 10:28:43;;;;;;;13.25;7.00;;;9.60;99.90;;;;;;4985744;28;20052;-83
2022/04/25 10:31:44;;;;;;;11.43;7.10;;;9.90;99.90;;;;;;4995790;28;20487;-83
2022/04/25 10:34:14;;;;;;;11.52;7.38;;;10.30;99.90;;;;;;5012583;28;20072;-82
2022/04/25 10:36:39;;;;;;;9.40;6.95;;;10.70;99.90;;;;;;5030347;28;20127;-80
2022/04/25 10:39:20;;;;;;;11.63;7.35;;;10.90;99.90;;;;;;5015148;28;20469;-81
2022/04/25 10:44:43;;;;;;;15.02;7.28;;;11.10;99.90;;;;;;5020186;28;20049;-83
2022/04/25 10:47:11;;;;;;;11.95;7.18;;;11.40;99.90;;;;;;4997168;28;20207;-83
2022/04/25 10:49:57;;;;;;;15.13;8.32;;;11.60;99.90;;;;;;5011902;28;20084;-83
2022/04/25 10:52:37;;;;;;;11.30;7.22;;;11.90;99.90;;;;;;4978116;28;20061;-81
2022/04/25 10:55:14;;;;;;;12.27;7.25;;;12.10;99.90;;;;;;5011764;28;20107;-81
2022/04/25 10:57:58;;;;;;;;;;;12.10;99.90;;;;;;5027255;28;20052;-83
2022/04/25 11:00:36;;;;;;;10.40;6.03;;;12.30;99.90;;;;;;5000258;28;20363;-82
2022/04/25 11:03:30;;;;;;;11.70;7.50;;;12.40;99.90;;;;;;5003395;28;20037;-83
2022/04/25 11:06:05;;;;;;;13.55;6.97;;;12.50;99.90;;;;;;4974781;28;20085;-82
2022/04/25 11:08:36;;;;;;;11.48;7.53;;;12.60;99.90;;;;;;4993388;28;20053;-82
2022/04/25 11:11:18;;;;;;;10.95;7.65;;;13.00;99.90;;;;;;4990426;28;20052;-83
2022/04/25 11:13:49;;;;;;;9.35;6.85;;;13.40;99.90;;;;;;4984366;28;20048;-82
2022/04/25 11:16:18;;;;;;;11.10;7.10;;;14.10;99.90;;;;;;4989118;28;20115;-82
2022/04/25 11:18:45;;;;;;;10.02;6.63;;;14.60;99.90;;;;;;4986025;28;20061;-83
2022/04/25 11:21:13;;;;;;;8.77;6.53;;;15.60;99.90;;;;;;5006483;28;20133;-82
2022/04/25 11:23:44;;;;;;;10.85;7.63;;;16.10;97.40;;;;;;4969638;28;20513;-81
2022/04/25 11:26:33;;;;;;;9.27;6.75;;;15.80;93.50;;;;;;5010267;28;20056;-81
2022/04/25 11:29:09;;;;;;;11.65;7.25;;;15.50;92.80;;;;;;5010944;28;20058;-81
2022/04/25 11:31:35;;;;;;;;;;;15.40;96.40;;;;;;5001218;28;20046;-81
2022/04/25 11:34:03;;;;;;;9.35;7.50;;;15.20;93.00;;;;;;4999767;28;19924;-82
2022/04/25 11:36:31;;;;;;;12.50;7.07;;;14.90;98.50;;;;;;4995640;28;20065;-82
2022/04/25 11:41:44;;;;;;;12.88;8.07;;;14.50;97.80;;;;;;5009243;28;20554;-81
2022/04/25 11:44:10;;;;;;;11.02;8.25;;;14.20;98.50;;;;;;4986050;28;20072;-81
2022/04/25 11:46:37;;;;;;;10.15;8.20;;;14.20;99.00;;;;;;4977641;28;20045;-82
2022/04/25 11:49:04;;;;;;;10.25;7.88;;;14.30;99.70;;;;;;5019858;28;20072;-82
2022/04/25 11:51:31;;;;;;;12.90;8.27;;;14.60;99.40;;;;;;4979230;28;20057;-81
2022/04/25 11:54:05;;;;;;;14.88;9.05;;;14.80;98.80;;;;;;4997103;28;20045;-82
2022/04/25 11:56:32;;;;;;;11.93;8.45;;;15.10;95.70;;;;;;4993953;28;20630;-81
2022/04/25 11:59:00;;;;;;;10.80;7.70;;;15.10;96.90;;;;;;4995382;28;20034;-81
2022/04/25 12:01:40;;;;;;;11.50;8.18;;;15.00;96.20;;;;;;4983226;28;20065;-82
2022/04/25 12:04:20;;;;;;;9.60;8.23;;;14.80;93.80;;;;;;4987937;28;20507;-82
2022/04/25 12:07:03;;;;;;;12.90;8.25;;;14.60;93.80;;;;;;4978505;28;20054;-82
2022/04/25 12:15:43;;;;;;;9.55;7.50;;;13.80;99.00;;;;;;5014579;28;20041;-82
2022/04/25 12:18:18;;;;;;;11.07;8.13;;;13.70;95.20;;;;;;4975691;28;20454;-81
2022/04/25 12:21:08;;;;;;;10.93;7.68;;;13.60;98.90;;;;;;4987338;28;20128;-83
2022/04/25 12:23:54;;;;;;;11.88;8.20;;;13.70;99.90;;;;;;5012442;28;20597;-82
2022/04/25 12:26:27;;;;;;;12.75;7.90;;;14.00;99.90;;;;;;4994002;28;20049;-82
2022/04/25 12:29:08;;;;;;;12.00;7.55;;;14.40;99.90;;;;;;5008944;28;20041;-82
2022/04/25 12:31:45;;;;;;;11.13;7.43;;;14.70;98.70;;;;;;4962637;28;20049;-81
2022/04/25 12:34:12;;;;;;;10.57;7.63;;;15.00;98.90;;;;;;4986982;28;20581;-81
2022/04/25 12:36:39;;;;;;;9.90;7.65;;;15.00;98.90;;;;;;5000495;28;20406;-81
2022/04/25 12:39:14;;;;;;;11.15;7.95;;;15.00;97.70;;;;;;4995510;28;20578;-82
2022/04/25 12:41:51;;;;;;;9.50;8.20;;;15.20;96.40;;;;;;5010408;28;20045;-82
2022/04/25 12:44:17;;;;;;;10.73;7.90;;;15.40;94.60;;;;;;5000785;28;20053;-81
2022/04/25 12:46:48;;;;;;;8.98;7.47;;;15.50;93.60;;;;;;4970820;28;20841;-82
2022/04/25 12:49:14;;;;;;;9.43;7.78;;;15.60;92.20;;;;;;5010374;28;20120;-81
2022/04/25 12:51:47;;;;;;;10.25;7.53;;;15.40;92.10;;;;;;4995145;28;20496;-82
2022/04/25 12:54:27;;;;;;;10.85;8.18;;;15.30;92.10;;;;;;5008399;28;20384;-82
2022/04/25 12:57:15;;;;;;;12.55;7.93;;;15.20;93.10;;;;;;5002253;28;20050;-81
2022/04/25 13:00:03;;;;;;;10.93;7.82;;;15.10;94.30;;;;;;5004037;28;20154;-82
2022/04/25 13:02:39;;;;;;;12.40;7.63;;;15.00;95.40;;;;;;5011089;28;20056;-82
2022/04/25 13:05:10;;;;;;;11.02;8.13;;;14.80;95.70;;;;;;4977351;28;20052;-82
2022/04/25 13:07:40;;;;;;;10.80;8.32;;;14.60;97.70;;;;;;4995016;28;20073;-83
2022/04/25 13:10:14;;;;;;;10.52;7.60;;;14.40;99.50;;;;;;4988326;28;20052;-81
2022/04/25 13:12:48;;;;;;;10.77;7.90;;;14.30;99.90;;;;;;4974164;28;20052;-82
2022/04/25 13:15:19;;;;;;;10.60;7.40;;;14.40;99.90;;;;;;4983399;28;20049;-82
2022/04/25 13:17:46;;;;;;;11.50;7.55;;;14.50;99.90;;;;;;4994729;28;20259;-82
2022/04/25 13:20:13;;;;;;;13.55;7.63;;;14.70;99.90;;;;;;4973852;28;20041;-82